sensor_id;sensor_type;location;lat;lon;timestamp;pressure;altitude;pressure_sealevel;temperature;humidity
29941;BME280;16801;53.562;10.038;2024-03-29T00:02:30;99343.44;;;8.07;100.00
29941;BME280;16801;53.562;10.038;2024-03-29T00:05:50;99339.59;;;8.10;100.00
29941;BME280;16801;53.562;10.038;2024-03-29T00:09:20;99348.84;;;8.16;100.00
29941;BME280;16801;53.562;10.038;2024-03-29T00:12:40;99347.19;;;8.15;100.00
29941;BME280;16801;53.562;10.038;2024-03-29T00:16:08;99335.09;;;8.11;100.00
29941;BME280;16801;53.562;10.038;2024-03-29T00:19:27;99335.09;;;8.11;100.00
29941;BME280;16801;53.562;10.038;2024-03-29T00:22:51;99339.97;;;8.15;100.00
29941;BME280;16801;53.562;10.038;2024-03-29T00:26:13;99338.41;;;8.04;100.00
29941;BME280;16801;53.562;10.038;2024-03-29T00:30:01;99330.81;;;8.00;100.00
29941;BME280;16801;53.562;10.038;2024-03-29T00:33:21;99338.88;;;8.00;100.00
29941;BME280;16801;53.562;10.038;2024-03-29T00:36:41;99348.41;;;7.94;100.00
29941;BME280;16801;53.562;10.038;2024-03-29T00:40:07;99339.13;;;7.89;100.00
29941;BME280;16801;53.562;10.038;2024-03-29T00:43:29;99336.09;;;7.84;100.00
29941;BME280;16801;53.562;10.038;2024-03-29T00:51:08;99345.97;;;7.83;100.00
29941;BME280;16801;53.562;10.038;2024-03-29T00:54:29;99356.63;;;7.75;100.00
29941;BME280;16801;53.562;10.038;2024-03-29T00:58:03;99350.94;;;7.78;100.00
29941;BME280;16801;53.562;10.038;2024-03-29T01:01:25;99354.88;;;7.84;100.00
29941;BME280;16801;53.562;10.038;2024-03-29T01:04:47;99352.94;;;7.76;100.00
29941;BME280;16801;53.562;10.038;2024-03-29T01:08:07;99351.22;;;7.67;100.00
29941;BME280;16801;53.562;10.038;2024-03-29T01:11:44;99341.47;;;7.66;100.00
29941;BME280;16801;53.562;10.038;2024-03-29T01:15:08;99348.19;;;7.70;100.00
29941;BME280;16801;53.562;10.038;2024-03-29T01:18:30;99347.69;;;7.67;100.00
29941;BME280;16801;53.562;10.038;2024-03-29T01:21:50;99339.81;;;7.65;100.00
29941;BME280;16801;53.562;10.038;2024-03-29T01:25:19;99351.66;;;7.63;100.00
29941;BME280;16801;53.562;10.038;2024-03-29T01:28:39;99346.47;;;7.61;100.00
29941;BME280;16801;53.562;10.038;2024-03-29T01:32:08;99345.41;;;7.54;100.00
29941;BME280;16801;53.562;10.038;2024-03-29T01:35:29;99352.06;;;7.50;100.00
29941;BME280;16801;53.562;10.038;2024-03-29T01:38:52;99348.06;;;7.54;100.00
29941;BME280;16801;53.562;10.038;2024-03-29T01:42:12;99342.81;;;7.45;100.00
29941;BME280;16801;53.562;10.038;2024-03-29T01:45:38;99352.22;;;7.49;100.00
29941;BME280;16801;53.562;10.038;2024-03-29T01:48:59;99363.25;;;7.46;100.00
29941;BME280;16801;53.562;10.038;2024-03-29T01:52:24;99351.84;;;7.44;100.00
29941;BME280;16801;53.562;10.038;2024-03-29T01:55:46;99358.41;;;7.49;100.00
29941;BME280;16801;53.562;10.038;2024-03-29T01:59:12;99356.34;;;7.43;100.00
29941;BME280;16801;53.562;10.038;2024-03-29T02:02:34;99350.13;;;7.43;100.00
29941;BME280;16801;53.562;10.038;2024-03-29T02:05:56;99356.13;;;7.37;100.00
29941;BME280;16801;53.562;10.038;2024-03-29T02:09:20;99362.78;;;7.33;100.00
29941;BME280;16801;53.562;10.038;2024-03-29T02:12:41;99353.06;;;7.32;100.00
29941;BME280;16801;53.562;10.038;2024-03-29T02:16:02;99364.16;;;7.37;100.00
29941;BME280;16801;53.562;10.038;2024-03-29T02:19:24;99364.63;;;7.32;100.00
29941;BME280;16801;53.562;10.038;2024-03-29T02:22:49;99360.25;;;7.31;100.00
29941;BME280;16801;53.562;10.038;2024-03-29T02:26:15;99372.19;;;7.37;100.00
29941;BME280;16801;53.562;10.038;2024-03-29T02:29:36;99369.69;;;7.35;100.00
29941;BME280;16801;53.562;10.038;2024-03-29T02:32:57;99366.47;;;7.32;100.00
29941;BME280;16801;53.562;10.038;2024-03-29T02:36:18;99373.38;;;7.34;100.00
29941;BME280;16801;53.562;10.038;2024-03-29T02:39:40;99384.91;;;7.35;100.00
29941;BME280;16801;53.562;10.038;2024-03-29T02:43:03;99381.41;;;7.34;100.00
29941;BME280;16801;53.562;10.038;2024-03-29T02:46:24;99394.00;;;7.24;100.00
29941;BME280;16801;53.562;10.038;2024-03-29T02:49:45;99384.66;;;7.28;100.00
29941;BME280;16801;53.562;10.038;2024-03-29T02:53:05;99385.28;;;7.22;100.00
29941;BME280;16801;53.562;10.038;2024-03-29T02:56:27;99393.31;;;7.22;100.00
29941;BME280;16801;53.562;10.038;2024-03-29T02:59:48;99387.28;;;7.20;100.00
29941;BME280;16801;53.562;10.038;2024-03-29T03:03:09;99385.44;;;7.20;100.00
29941;BME280;16801;53.562;10.038;2024-03-29T03:06:30;99375.03;;;7.17;100.00
29941;BME280;16801;53.562;10.038;2024-03-29T03:09:51;99371.50;;;7.17;100.00
29941;BME280;16801;53.562;10.038;2024-03-29T03:13:30;99368.84;;;7.17;100.00
29941;BME280;16801;53.562;10.038;2024-03-29T03:16:52;99365.06;;;7.10;100.00
29941;BME280;16801;53.562;10.038;2024-03-29T03:20:13;99363.44;;;6.99;100.00
29941;BME280;16801;53.562;10.038;2024-03-29T03:23:35;99358.84;;;6.92;100.00
29941;BME280;16801;53.562;10.038;2024-03-29T03:26:56;99353.53;;;6.82;100.00
29941;BME280;16801;53.562;10.038;2024-03-29T03:30:17;99349.88;;;6.83;100.00
29941;BME280;16801;53.562;10.038;2024-03-29T03:33:39;99350.31;;;6.79;100.00
29941;BME280;16801;53.562;10.038;2024-03-29T03:37:00;99350.75;;;6.74;100.00
29941;BME280;16801;53.562;10.038;2024-03-29T03:40:20;99356.28;;;6.73;100.00
29941;BME280;16801;53.562;10.038;2024-03-29T03:43:41;99348.69;;;6.68;100.00
29941;BME280;16801;53.562;10.038;2024-03-29T03:47:01;99360.25;;;6.69;100.00
29941;BME280;16801;53.562;10.038;2024-03-29T03:50:23;99369.75;;;6.81;100.00
29941;BME280;16801;53.562;10.038;2024-03-29T03:53:44;99383.00;;;6.82;100.00
29941;BME280;16801;53.562;10.038;2024-03-29T03:57:04;99377.50;;;6.84;100.00
29941;BME280;16801;53.562;10.038;2024-03-29T04:00:25;99372.44;;;6.81;100.00
29941;BME280;16801;53.562;10.038;2024-03-29T04:03:46;99370.00;;;6.87;100.00
29941;BME280;16801;53.562;10.038;2024-03-29T04:07:08;99375.59;;;6.94;100.00
29941;BME280;16801;53.562;10.038;2024-03-29T04:10:28;99375.59;;;6.94;100.00
29941;BME280;16801;53.562;10.038;2024-03-29T04:13:49;99375.66;;;6.84;100.00
29941;BME280;16801;53.562;10.038;2024-03-29T04:17:09;99378.88;;;6.88;100.00
29941;BME280;16801;53.562;10.038;2024-03-29T04:20:30;99370.84;;;6.88;100.00
29941;BME280;16801;53.562;10.038;2024-03-29T04:23:53;99371.59;;;6.80;100.00
29941;BME280;16801;53.562;10.038;2024-03-29T04:27:14;99378.88;;;6.88;100.00
29941;BME280;16801;53.562;10.038;2024-03-29T04:30:36;99367.03;;;6.90;100.00
29941;BME280;16801;53.562;10.038;2024-03-29T04:33:56;99364.50;;;6.89;100.00
29941;BME280;16801;53.562;10.038;2024-03-29T04:37:18;99359.91;;;6.99;100.00
29941;BME280;16801;53.562;10.038;2024-03-29T04:40:40;99375.81;;;6.83;100.00
29941;BME280;16801;53.562;10.038;2024-03-29T04:44:01;99372.84;;;7.03;100.00
29941;BME280;16801;53.562;10.038;2024-03-29T04:47:22;99372.72;;;7.05;100.00
29941;BME280;16801;53.562;10.038;2024-03-29T04:50:43;99379.78;;;6.79;100.00
29941;BME280;16801;53.562;10.038;2024-03-29T04:54:04;99381.50;;;6.97;100.00
29941;BME280;16801;53.562;10.038;2024-03-29T04:57:28;99398.00;;;6.93;100.00
29941;BME280;16801;53.562;10.038;2024-03-29T05:00:49;99397.06;;;6.84;100.00
29941;BME280;16801;53.562;10.038;2024-03-29T05:04:10;99399.31;;;6.89;100.00
29941;BME280;16801;53.562;10.038;2024-03-29T05:07:32;99402.06;;;6.79;100.00
29941;BME280;16801;53.562;10.038;2024-03-29T05:10:53;99407.44;;;6.97;100.00
29941;BME280;16801;53.562;10.038;2024-03-29T05:14:16;99405.44;;;6.99;100.00
29941;BME280;16801;53.562;10.038;2024-03-29T05:17:38;99397.91;;;6.85;100.00
29941;BME280;16801;53.562;10.038;2024-03-29T05:21:01;99403.69;;;6.90;100.00
29941;BME280;16801;53.562;10.038;2024-03-29T05:24:21;99418.50;;;6.84;100.00
29941;BME280;16801;53.562;10.038;2024-03-29T05:27:43;99398.59;;;6.96;100.00
29941;BME280;16801;53.562;10.038;2024-03-29T05:34:51;99422.09;;;7.02;100.00
29941;BME280;16801;53.562;10.038;2024-03-29T05:38:12;99414.75;;;7.04;100.00
29941;BME280;16801;53.562;10.038;2024-03-29T05:41:32;99424.19;;;6.99;100.00
29941;BME280;16801;53.562;10.038;2024-03-29T05:44:53;99435.75;;;7.09;100.00
29941;BME280;16801;53.562;10.038;2024-03-29T05:48:16;99432.47;;;7.15;100.00
29941;BME280;16801;53.562;10.038;2024-03-29T05:51:38;99436.44;;;7.28;100.00
29941;BME280;16801;53.562;10.038;2024-03-29T05:54:59;99435.91;;;7.25;100.00
29941;BME280;16801;53.562;10.038;2024-03-29T05:58:26;99437.91;;;7.23;100.00
29941;BME280;16801;53.562;10.038;2024-03-29T06:01:47;99431.09;;;7.28;100.00
29941;BME280;16801;53.562;10.038;2024-03-29T06:05:09;99443.44;;;7.39;100.00
29941;BME280;16801;53.562;10.038;2024-03-29T06:08:30;99447.94;;;7.39;100.00
29941;BME280;16801;53.562;10.038;2024-03-29T06:11:51;99441.06;;;7.36;100.00
29941;BME280;16801;53.562;10.038;2024-03-29T06:15:12;99454.25;;;7.47;100.00
29941;BME280;16801;53.562;10.038;2024-03-29T06:18:51;99452.72;;;7.62;100.00
29941;BME280;16801;53.562;10.038;2024-03-29T06:22:13;99453.81;;;7.69;100.00
29941;BME280;16801;53.562;10.038;2024-03-29T06:25:34;99460.09;;;7.78;100.00
29941;BME280;16801;53.562;10.038;2024-03-29T06:28:55;99458.41;;;7.94;100.00
29941;BME280;16801;53.562;10.038;2024-03-29T06:32:16;99469.53;;;7.82;100.00
29941;BME280;16801;53.562;10.038;2024-03-29T06:35:38;99462.91;;;7.76;100.00
29941;BME280;16801;53.562;10.038;2024-03-29T06:39:00;99463.75;;;7.77;100.00
29941;BME280;16801;53.562;10.038;2024-03-29T06:42:23;99475.41;;;7.85;100.00
29941;BME280;16801;53.562;10.038;2024-03-29T06:45:45;99468.59;;;7.91;100.00
29941;BME280;16801;53.562;10.038;2024-03-29T06:49:06;99471.97;;;7.93;100.00
29941;BME280;16801;53.562;10.038;2024-03-29T06:52:26;99467.97;;;7.97;100.00
29941;BME280;16801;53.562;10.038;2024-03-29T06:55:49;99468.34;;;8.02;100.00
29941;BME280;16801;53.562;10.038;2024-03-29T06:59:10;99458.13;;;8.23;100.00
29941;BME280;16801;53.562;10.038;2024-03-29T07:02:31;99451.31;;;8.29;100.00
29941;BME280;16801;53.562;10.038;2024-03-29T07:05:52;99461.59;;;8.33;100.00
29941;BME280;16801;53.562;10.038;2024-03-29T07:09:13;99468.03;;;8.23;100.00
29941;BME280;16801;53.562;10.038;2024-03-29T07:12:35;99468.50;;;8.36;100.00
29941;BME280;16801;53.562;10.038;2024-03-29T07:15:56;99479.34;;;8.52;100.00
29941;BME280;16801;53.562;10.038;2024-03-29T07:19:17;99470.03;;;8.64;100.00
29941;BME280;16801;53.562;10.038;2024-03-29T07:22:38;99475.31;;;8.73;100.00
29941;BME280;16801;53.562;10.038;2024-03-29T07:26:00;99477.81;;;8.75;100.00
29941;BME280;16801;53.562;10.038;2024-03-29T07:29:23;99487.63;;;8.84;100.00
29941;BME280;16801;53.562;10.038;2024-03-29T07:32:44;99482.75;;;8.88;100.00
29941;BME280;16801;53.562;10.038;2024-03-29T07:36:06;99487.22;;;9.05;100.00
29941;BME280;16801;53.562;10.038;2024-03-29T07:39:28;99491.13;;;9.10;100.00
29941;BME280;16801;53.562;10.038;2024-03-29T07:42:49;99495.81;;;9.08;100.00
29941;BME280;16801;53.562;10.038;2024-03-29T07:46:12;99497.84;;;9.14;100.00
29941;BME280;16801;53.562;10.038;2024-03-29T07:49:32;99500.22;;;9.17;100.00
29941;BME280;16801;53.562;10.038;2024-03-29T07:52:53;99528.66;;;9.20;100.00
29941;BME280;16801;53.562;10.038;2024-03-29T07:56:14;99529.00;;;9.25;100.00
29941;BME280;16801;53.562;10.038;2024-03-29T07:59:36;99516.91;;;9.29;100.00
29941;BME280;16801;53.562;10.038;2024-03-29T08:02:59;99511.72;;;9.35;100.00
29941;BME280;16801;53.562;10.038;2024-03-29T08:06:21;99535.91;;;9.27;100.00
29941;BME280;16801;53.562;10.038;2024-03-29T08:09:42;99518.25;;;9.33;100.00
29941;BME280;16801;53.562;10.038;2024-03-29T08:13:03;99525.00;;;9.37;100.00
29941;BME280;16801;53.562;10.038;2024-03-29T08:16:26;99539.31;;;9.37;100.00
29941;BME280;16801;53.562;10.038;2024-03-29T08:19:49;99554.28;;;9.40;100.00
29941;BME280;16801;53.562;10.038;2024-03-29T08:23:10;99549.75;;;9.40;100.00
29941;BME280;16801;53.562;10.038;2024-03-29T08:26:31;99551.78;;;9.46;100.00
29941;BME280;16801;53.562;10.038;2024-03-29T08:29:52;99555.84;;;9.50;100.00
29941;BME280;16801;53.562;10.038;2024-03-29T08:33:13;99545.38;;;9.47;100.00
29941;BME280;16801;53.562;10.038;2024-03-29T08:36:35;99540.38;;;9.52;100.00
29941;BME280;16801;53.562;10.038;2024-03-29T08:39:56;99520.91;;;9.58;100.00
29941;BME280;16801;53.562;10.038;2024-03-29T08:43:17;99512.00;;;9.66;100.00
29941;BME280;16801;53.562;10.038;2024-03-29T08:46:38;99511.69;;;9.69;100.00
29941;BME280;16801;53.562;10.038;2024-03-29T08:49:59;99507.16;;;9.78;100.00
29941;BME280;16801;53.562;10.038;2024-03-29T08:53:21;99513.41;;;9.78;100.00
29941;BME280;16801;53.562;10.038;2024-03-29T08:56:42;99515.94;;;9.88;100.00
29941;BME280;16801;53.562;10.038;2024-03-29T09:00:05;99498.78;;;9.89;100.00
29941;BME280;16801;53.562;10.038;2024-03-29T09:03:26;99478.06;;;9.89;100.00
29941;BME280;16801;53.562;10.038;2024-03-29T09:06:47;99486.63;;;9.68;100.00
29941;BME280;16801;53.562;10.038;2024-03-29T09:10:11;99492.19;;;9.83;100.00
29941;BME280;16801;53.562;10.038;2024-03-29T09:13:32;99496.41;;;9.86;100.00
29941;BME280;16801;53.562;10.038;2024-03-29T09:16:53;99485.38;;;10.13;100.00
29941;BME280;16801;53.562;10.038;2024-03-29T09:20:15;99474.88;;;10.10;100.00
29941;BME280;16801;53.562;10.038;2024-03-29T09:23:35;99470.56;;;10.25;100.00
29941;BME280;16801;53.562;10.038;2024-03-29T09:27:03;99479.31;;;10.19;100.00
29941;BME280;16801;53.562;10.038;2024-03-29T09:30:33;99483.13;;;9.92;100.00
29941;BME280;16801;53.562;10.038;2024-03-29T09:33:53;99482.25;;;9.68;100.00
29941;BME280;16801;53.562;10.038;2024-03-29T09:37:25;99478.69;;;9.51;100.00
29941;BME280;16801;53.562;10.038;2024-03-29T09:40:47;99479.66;;;9.42;100.00
29941;BME280;16801;53.562;10.038;2024-03-29T09:44:15;99471.97;;;9.55;100.00
29941;BME280;16801;53.562;10.038;2024-03-29T09:47:37;99467.75;;;9.52;100.00
29941;BME280;16801;53.562;10.038;2024-03-29T09:50:59;99463.41;;;9.68;100.00
29941;BME280;16801;53.562;10.038;2024-03-29T09:54:20;99470.84;;;9.90;100.00
29941;BME280;16801;53.562;10.038;2024-03-29T09:57:42;99473.69;;;9.80;100.00
29941;BME280;16801;53.562;10.038;2024-03-29T10:01:05;99466.59;;;9.63;100.00
29941;BME280;16801;53.562;10.038;2024-03-29T10:04:27;99449.44;;;9.64;100.00
29941;BME280;16801;53.562;10.038;2024-03-29T10:07:50;99443.91;;;9.65;100.00
29941;BME280;16801;53.562;10.038;2024-03-29T10:11:11;99444.91;;;9.81;100.00
29941;BME280;16801;53.562;10.038;2024-03-29T10:14:43;99440.56;;;9.80;100.00
29941;BME280;16801;53.562;10.038;2024-03-29T10:18:10;99445.28;;;9.86;100.00
29941;BME280;16801;53.562;10.038;2024-03-29T10:21:31;99443.06;;;9.89;100.00
29941;BME280;16801;53.562;10.038;2024-03-29T10:24:53;99450.66;;;9.86;100.00
29941;BME280;16801;53.562;10.038;2024-03-29T10:28:14;99441.09;;;10.39;100.00
29941;BME280;16801;53.562;10.038;2024-03-29T10:31:35;99447.41;;;10.79;100.00
29941;BME280;16801;53.562;10.038;2024-03-29T10:34:58;99439.53;;;10.69;100.00
29941;BME280;16801;53.562;10.038;2024-03-29T10:38:22;99438.25;;;10.17;100.00
29941;BME280;16801;53.562;10.038;2024-03-29T10:41:46;99433.84;;;10.08;100.00
29941;BME280;16801;53.562;10.038;2024-03-29T10:45:10;99430.44;;;10.62;100.00
29941;BME280;16801;53.562;10.038;2024-03-29T10:48:31;99428.66;;;10.38;100.00
29941;BME280;16801;53.562;10.038;2024-03-29T10:51:55;99439.22;;;10.56;100.00
29941;BME280;16801;53.562;10.038;2024-03-29T10:55:19;99440.75;;;10.26;100.00
29941;BME280;16801;53.562;10.038;2024-03-29T10:58:52;99432.16;;;10.39;100.00
29941;BME280;16801;53.562;10.038;2024-03-29T11:02:25;99436.41;;;10.25;100.00
29941;BME280;16801;53.562;10.038;2024-03-29T11:05:50;99426.78;;;9.99;100.00
29941;BME280;16801;53.562;10.038;2024-03-29T11:09:13;99434.56;;;10.26;100.00
29941;BME280;16801;53.562;10.038;2024-03-29T11:12:41;99435.72;;;10.07;100.00
29941;BME280;16801;53.562;10.038;2024-03-29T11:16:07;99443.94;;;10.46;100.00
29941;BME280;16801;53.562;10.038;2024-03-29T11:19:31;99449.66;;;10.43;100.00
29941;BME280;16801;53.562;10.038;2024-03-29T11:22:52;99450.84;;;10.49;100.00
29941;BME280;16801;53.562;10.038;2024-03-29T11:26:16;99443.28;;;10.44;100.00
29941;BME280;16801;53.562;10.038;2024-03-29T11:29:41;99450.66;;;10.58;100.00
29941;BME280;16801;53.562;10.038;2024-03-29T11:33:05;99435.78;;;10.70;100.00
29941;BME280;16801;53.562;10.038;2024-03-29T11:36:28;99442.66;;;10.97;100.00
29941;BME280;16801;53.562;10.038;2024-03-29T11:39:54;99440.31;;;11.24;100.00
29941;BME280;16801;53.562;10.038;2024-03-29T11:43:16;99463.50;;;11.11;100.00
29941;BME280;16801;53.562;10.038;2024-03-29T11:46:37;99465.19;;;11.04;100.00
29941;BME280;16801;53.562;10.038;2024-03-29T11:49:59;99464.72;;;11.00;100.00
29941;BME280;16801;53.562;10.038;2024-03-29T11:53:21;99441.41;;;11.15;100.00
29941;BME280;16801;53.562;10.038;2024-03-29T11:56:42;99428.88;;;11.22;100.00
29941;BME280;16801;53.562;10.038;2024-03-29T12:00:08;99442.53;;;11.21;100.00
29941;BME280;16801;53.562;10.038;2024-03-29T12:03:51;99440.69;;;11.52;100.00
29941;BME280;16801;53.562;10.038;2024-03-29T12:07:12;99440.78;;;11.36;100.00
29941;BME280;16801;53.562;10.038;2024-03-29T12:10:35;99460.69;;;11.35;100.00
29941;BME280;16801;53.562;10.038;2024-03-29T12:13:55;99464.09;;;11.68;100.00
29941;BME280;16801;53.562;10.038;2024-03-29T12:17:19;99445.22;;;11.90;100.00
29941;BME280;16801;53.562;10.038;2024-03-29T12:20:40;99437.47;;;12.47;100.00
29941;BME280;16801;53.562;10.038;2024-03-29T12:24:01;99443.16;;;12.15;100.00
29941;BME280;16801;53.562;10.038;2024-03-29T12:27:22;99437.47;;;12.47;100.00
29941;BME280;16801;53.562;10.038;2024-03-29T12:30:45;99442.00;;;12.99;100.00
29941;BME280;16801;53.562;10.038;2024-03-29T12:34:07;99442.81;;;12.18;100.00
29941;BME280;16801;53.562;10.038;2024-03-29T12:37:28;99448.50;;;12.00;100.00
29941;BME280;16801;53.562;10.038;2024-03-29T12:40:50;99462.28;;;11.83;100.00
29941;BME280;16801;53.562;10.038;2024-03-29T12:44:11;99472.81;;;11.78;100.00
29941;BME280;16801;53.562;10.038;2024-03-29T12:47:32;99462.19;;;11.76;100.00
29941;BME280;16801;53.562;10.038;2024-03-29T12:50:56;99492.72;;;11.99;100.00
29941;BME280;16801;53.562;10.038;2024-03-29T12:54:17;99483.78;;;11.76;100.00
29941;BME280;16801;53.562;10.038;2024-03-29T12:57:40;99465.00;;;11.83;100.00
29941;BME280;16801;53.562;10.038;2024-03-29T13:01:02;99458.13;;;12.03;100.00
29941;BME280;16801;53.562;10.038;2024-03-29T13:04:25;99463.34;;;12.04;100.00
29941;BME280;16801;53.562;10.038;2024-03-29T13:07:48;99496.66;;;11.97;100.00
29941;BME280;16801;53.562;10.038;2024-03-29T13:11:09;99492.72;;;11.99;100.00
29941;BME280;16801;53.562;10.038;2024-03-29T13:14:30;99489.44;;;12.12;100.00
29941;BME280;16801;53.562;10.038;2024-03-29T13:17:52;99492.97;;;12.13;100.00
29941;BME280;16801;53.562;10.038;2024-03-29T13:21:14;99467.53;;;12.30;100.00
29941;BME280;16801;53.562;10.038;2024-03-29T13:24:36;99491.13;;;12.36;100.00
29941;BME280;16801;53.562;10.038;2024-03-29T13:27:57;99501.75;;;12.37;100.00
29941;BME280;16801;53.562;10.038;2024-03-29T13:31:18;99486.63;;;12.28;100.00
29941;BME280;16801;53.562;10.038;2024-03-29T13:34:39;99464.63;;;12.31;100.00
29941;BME280;16801;53.562;10.038;2024-03-29T13:38:00;99451.00;;;12.47;100.00
29941;BME280;16801;53.562;10.038;2024-03-29T13:41:22;99464.03;;;12.44;100.00
29941;BME280;16801;53.562;10.038;2024-03-29T13:44:43;99477.28;;;12.53;100.00
29941;BME280;16801;53.562;10.038;2024-03-29T13:48:05;99510.03;;;12.73;100.00
29941;BME280;16801;53.562;10.038;2024-03-29T13:51:27;99514.59;;;12.72;100.00
29941;BME280;16801;53.562;10.038;2024-03-29T13:54:48;99520.59;;;12.68;100.00
29941;BME280;16801;53.562;10.038;2024-03-29T13:58:11;99526.41;;;12.94;100.00
29941;BME280;16801;53.562;10.038;2024-03-29T14:01:32;99523.09;;;12.69;100.00
29941;BME280;16801;53.562;10.038;2024-03-29T14:04:53;99520.28;;;12.63;100.00
29941;BME280;16801;53.562;10.038;2024-03-29T14:08:15;99528.31;;;12.71;100.00
29941;BME280;16801;53.562;10.038;2024-03-29T14:11:36;99530.00;;;12.72;100.00
29941;BME280;16801;53.562;10.038;2024-03-29T14:14:58;99524.06;;;12.76;100.00
29941;BME280;16801;53.562;10.038;2024-03-29T14:18:20;99512.94;;;12.71;100.00
29941;BME280;16801;53.562;10.038;2024-03-29T14:21:41;99519.78;;;12.97;100.00
29941;BME280;16801;53.562;10.038;2024-03-29T14:25:03;99512.66;;;13.47;100.00
29941;BME280;16801;53.562;10.038;2024-03-29T14:28:23;99515.44;;;13.54;100.00
29941;BME280;16801;53.562;10.038;2024-03-29T14:31:46;99511.53;;;13.27;100.00
29941;BME280;16801;53.562;10.038;2024-03-29T14:35:07;99505.88;;;14.08;100.00
29941;BME280;16801;53.562;10.038;2024-03-29T14:38:30;99486.91;;;14.72;100.00
29941;BME280;16801;53.562;10.038;2024-03-29T14:41:51;99487.97;;;15.73;100.00
29941;BME280;16801;53.562;10.038;2024-03-29T14:45:13;99491.41;;;15.48;100.00
29941;BME280;16801;53.562;10.038;2024-03-29T14:48:35;99492.88;;;15.16;100.00
29941;BME280;16801;53.562;10.038;2024-03-29T14:51:56;99501.44;;;15.47;100.00
29941;BME280;16801;53.562;10.038;2024-03-29T14:55:17;99487.28;;;15.24;100.00
29941;BME280;16801;53.562;10.038;2024-03-29T14:58:38;99496.63;;;14.38;100.00
29941;BME280;16801;53.562;10.038;2024-03-29T15:01:59;99500.97;;;14.33;100.00
29941;BME280;16801;53.562;10.038;2024-03-29T15:05:21;99489.16;;;14.05;100.00
29941;BME280;16801;53.562;10.038;2024-03-29T15:08:43;99505.59;;;13.82;100.00
29941;BME280;16801;53.562;10.038;2024-03-29T15:12:04;99508.97;;;13.70;100.00
29941;BME280;16801;53.562;10.038;2024-03-29T15:15:25;99500.59;;;14.00;100.00
29941;BME280;16801;53.562;10.038;2024-03-29T15:18:46;99518.09;;;14.19;100.00
29941;BME280;16801;53.562;10.038;2024-03-29T15:22:18;99539.72;;;13.98;100.00
29941;BME280;16801;53.562;10.038;2024-03-29T15:25:39;99562.59;;;13.74;100.00
29941;BME280;16801;53.562;10.038;2024-03-29T15:29:02;99551.66;;;13.82;100.00
29941;BME280;16801;53.562;10.038;2024-03-29T15:32:30;99531.00;;;13.81;100.00
29941;BME280;16801;53.562;10.038;2024-03-29T15:35:52;99528.72;;;13.49;100.00
29941;BME280;16801;53.562;10.038;2024-03-29T15:39:14;99537.56;;;13.72;100.00
29941;BME280;16801;53.562;10.038;2024-03-29T15:43:00;99534.97;;;13.49;100.00
29941;BME280;16801;53.562;10.038;2024-03-29T15:46:22;99547.09;;;13.39;100.00
29941;BME280;16801;53.562;10.038;2024-03-29T15:49:43;99558.69;;;13.33;100.00
29941;BME280;16801;53.562;10.038;2024-03-29T15:53:05;99590.03;;;13.27;100.00
29941;BME280;16801;53.562;10.038;2024-03-29T15:56:27;99588.59;;;13.17;100.00
29941;BME280;16801;53.562;10.038;2024-03-29T15:59:48;99584.16;;;13.24;100.00
29941;BME280;16801;53.562;10.038;2024-03-29T16:03:10;99571.81;;;13.21;100.00
29941;BME280;16801;53.562;10.038;2024-03-29T16:06:32;99571.28;;;13.26;100.00
29941;BME280;16801;53.562;10.038;2024-03-29T16:09:53;99565.97;;;13.32;100.00
29941;BME280;16801;53.562;10.038;2024-03-29T16:13:15;99585.56;;;13.34;100.00
29941;BME280;16801;53.562;10.038;2024-03-29T16:16:36;99554.19;;;13.40;100.00
29941;BME280;16801;53.562;10.038;2024-03-29T16:19:57;99554.94;;;13.48;100.00
29941;BME280;16801;53.562;10.038;2024-03-29T16:23:17;99543.06;;;13.79;100.00
29941;BME280;16801;53.562;10.038;2024-03-29T16:26:38;99583.97;;;13.69;100.00
29941;BME280;16801;53.562;10.038;2024-03-29T16:29:59;99580.34;;;13.77;100.00
29941;BME280;16801;53.562;10.038;2024-03-29T16:33:19;99583.78;;;13.71;100.00
29941;BME280;16801;53.562;10.038;2024-03-29T16:36:40;99596.19;;;13.50;100.00
29941;BME280;16801;53.562;10.038;2024-03-29T16:40:00;99591.63;;;13.66;100.00
29941;BME280;16801;53.562;10.038;2024-03-29T16:43:22;99591.34;;;13.75;100.00
29941;BME280;16801;53.562;10.038;2024-03-29T16:46:44;99590.53;;;13.75;100.00
29941;BME280;16801;53.562;10.038;2024-03-29T16:50:06;99590.03;;;13.86;100.00
29941;BME280;16801;53.562;10.038;2024-03-29T16:53:27;99589.69;;;13.74;100.00
29941;BME280;16801;53.562;10.038;2024-03-29T16:56:48;99599.34;;;13.83;100.00
29941;BME280;16801;53.562;10.038;2024-03-29T17:00:10;99590.22;;;13.84;100.00
29941;BME280;16801;53.562;10.038;2024-03-29T17:03:32;99595.34;;;13.79;100.00
29941;BME280;16801;53.562;10.038;2024-03-29T17:06:53;99595.00;;;13.68;100.00
29941;BME280;16801;53.562;10.038;2024-03-29T17:10:13;99608.34;;;13.69;100.00
29941;BME280;16801;53.562;10.038;2024-03-29T17:13:34;99602.06;;;13.54;100.00
29941;BME280;16801;53.562;10.038;2024-03-29T17:16:55;99610.28;;;13.46;100.00
29941;BME280;16801;53.562;10.038;2024-03-29T17:20:20;99625.13;;;13.35;100.00
29941;BME280;16801;53.562;10.038;2024-03-29T17:23:41;99621.41;;;13.36;100.00
29941;BME280;16801;53.562;10.038;2024-03-29T17:27:01;99624.78;;;13.38;100.00
29941;BME280;16801;53.562;10.038;2024-03-29T17:30:22;99620.09;;;13.32;100.00
29941;BME280;16801;53.562;10.038;2024-03-29T17:33:43;99621.84;;;13.25;100.00
29941;BME280;16801;53.562;10.038;2024-03-29T17:37:04;99634.25;;;13.20;100.00
29941;BME280;16801;53.562;10.038;2024-03-29T17:40:28;99631.25;;;13.15;100.00